Time;durP1;ratioP1;P1;durP2;ratioP2;P2;SDS_P1;SDS_P2;PMS_P1;PMS_P2;Temp;Humidity;BMP_temperature;BMP_pressure;BME280_temperature;BME280_humidity;BME280_pressure;Samples;Min_cycle;Max_cycle;Signal;HPM_P1;HPM_P2
2021/07/22 00:00:56;;;;;;;25.05;15.35;;;;;;;;;;5097403;28;20035;-81
2021/07/22 00:03:22;;;;;;;28.15;16.13;;;;;;;;;;5096980;28;20052;-81
2021/07/22 00:05:48;;;;;;;24.65;16.52;;;;;;;;;;5097511;28;20035;-82
2021/07/22 00:08:14;;;;;;;25.17;16.40;;;;;;;;;;5097263;28;20111;-82
2021/07/22 00:10:40;;;;;;;27.85;16.33;;;;;;;;;;5079354;28;20322;-81
2021/07/22 00:13:06;;;;;;;27.35;17.70;;;;;;;;;;5097166;28;20047;-81
2021/07/22 00:15:33;;;;;;;28.92;19.02;;;;;;;;;;5096993;28;20024;-81
2021/07/22 00:17:59;;;;;;;31.52;19.23;;;;;;;;;;5078987;28;20020;-82
2021/07/22 00:20:25;;;;;;;35.85;20.13;;;;;;;;;;5096871;28;20027;-82
2021/07/22 00:22:51;;;;;;;25.42;19.70;;;;;;;;;;5079342;28;20126;-81
2021/07/22 00:25:17;;;;;;;36.95;21.13;;;;;;;;;;5097230;28;20016;-81
2021/07/22 00:27:43;;;;;;;27.15;19.60;;;;;;;;;;5097054;28;20049;-81
2021/07/22 00:30:09;;;;;;;33.83;19.88;;;;;;;;;;5096956;28;20025;-81
2021/07/22 00:32:36;;;;;;;26.70;20.80;;;;;;;;;;5096839;28;20032;-80
2021/07/22 00:35:02;;;;;;;36.00;21.55;;;;;;;;;;5079044;28;20024;-81
2021/07/22 00:37:28;;;;;;;37.47;21.20;;;;;;;;;;5079000;28;20060;-81
2021/07/22 00:39:54;;;;;;;31.75;21.02;;;;;;;;;;5096930;28;20020;-81
2021/07/22 00:42:20;;;;;;;38.63;20.73;;;;;;;;;;5096881;28;20317;-81
2021/07/22 00:44:46;;;;;;;29.05;20.08;;;;;;;;;;5096927;28;20437;-81
2021/07/22 00:47:12;;;;;;;34.72;21.20;;;;;;;;;;5097062;28;20054;-81
2021/07/22 00:49:38;;;;;;;36.58;19.60;;;;;;;;;;5096825;28;20016;-81
2021/07/22 00:52:04;;;;;;;36.33;17.73;;;;;;;;;;5096776;28;20024;-81
2021/07/22 00:54:30;;;;;;;29.63;14.35;;;;;;;;;;5096759;28;20035;-81
2021/07/22 00:56:56;;;;;;;16.98;11.40;;;;;;;;;;5096903;28;20028;-81
2021/07/22 00:59:22;;;;;;;15.20;11.15;;;;;;;;;;5096922;28;20347;-81
2021/07/22 01:01:48;;;;;;;14.38;10.77;;;;;;;;;;5096431;28;20040;-81
2021/07/22 01:04:14;;;;;;;19.70;11.13;;;;;;;;;;5078721;28;20032;-82
2021/07/22 01:06:40;;;;;;;19.13;11.52;;;;;;;;;;5096647;28;20024;-81
2021/07/22 01:09:07;;;;;;;15.73;11.45;;;;;;;;;;5078213;28;20040;-81
2021/07/22 01:11:33;;;;;;;17.80;11.88;;;;;;;;;;5096567;28;20413;-81
2021/07/22 01:13:59;;;;;;;13.02;11.18;;;;;;;;;;5096593;28;20046;-81
2021/07/22 01:16:25;;;;;;;14.75;10.18;;;;;;;;;;5096702;28;20031;-81
2021/07/22 01:18:51;;;;;;;17.30;11.02;;;;;;;;;;5096617;28;20024;-81
2021/07/22 01:21:17;;;;;;;16.58;9.82;;;;;;;;;;5096645;28;20021;-80
2021/07/22 01:23:43;;;;;;;12.52;9.98;;;;;;;;;;5096420;28;20464;-82
2021/07/22 01:26:09;;;;;;;14.18;10.57;;;;;;;;;;5078573;28;20063;-82
2021/07/22 01:28:35;;;;;;;18.60;10.85;;;;;;;;;;5097776;28;20379;-81
2021/07/22 01:31:01;;;;;;;13.85;10.32;;;;;;;;;;5100351;28;20038;-82
2021/07/22 01:33:28;;;;;;;15.68;10.90;;;;;;;;;;5099921;28;20047;-81
2021/07/22 01:35:54;;;;;;;16.05;10.32;;;;;;;;;;5100191;28;20027;-81
2021/07/22 01:38:20;;;;;;;18.63;10.20;;;;;;;;;;5081896;28;20028;-82
2021/07/22 01:40:46;;;;;;;16.35;10.95;;;;;;;;;;5100116;28;20024;-82
2021/07/22 01:43:12;;;;;;;11.85;9.40;;;;;;;;;;5082086;28;20030;-82
2021/07/22 01:45:39;;;;;;;11.90;10.10;;;;;;;;;;5099738;28;20516;-82
2021/07/22 01:48:05;;;;;;;11.10;9.18;;;;;;;;;;5099553;28;20028;-81
2021/07/22 01:50:31;;;;;;;11.23;10.07;;;;;;;;;;5081594;28;20039;-82
2021/07/22 01:52:57;;;;;;;15.13;10.57;;;;;;;;;;5099756;28;20099;-81
2021/07/22 01:55:23;;;;;;;16.13;10.27;;;;;;;;;;5099685;28;20027;-81
2021/07/22 01:57:49;;;;;;;14.98;10.90;;;;;;;;;;5099765;28;20338;-82
2021/07/22 02:00:16;;;;;;;15.80;10.65;;;;;;;;;;5099680;28;20087;-81
2021/07/22 02:02:42;;;;;;;16.38;11.55;;;;;;;;;;5099328;28;20442;-82
2021/07/22 02:05:08;;;;;;;15.02;11.70;;;;;;;;;;5099324;28;20020;-81
2021/07/22 02:07:34;;;;;;;15.00;11.70;;;;;;;;;;5099288;28;20024;-82
2021/07/22 02:10:00;;;;;;;15.57;10.80;;;;;;;;;;5099581;28;20024;-82
2021/07/22 02:12:26;;;;;;;16.83;11.25;;;;;;;;;;5099323;28;20024;-81
2021/07/22 02:14:52;;;;;;;13.00;11.00;;;;;;;;;;5099244;28;20028;-81
2021/07/22 02:17:19;;;;;;;13.45;10.35;;;;;;;;;;5099329;28;20087;-81
2021/07/22 02:19:46;;;;;;;18.80;10.43;;;;;;;;;;5099218;28;20024;-82
2021/07/22 02:22:14;;;;;;;14.68;10.90;;;;;;;;;;5099108;28;20048;-81
2021/07/22 02:24:40;;;;;;;20.40;11.05;;;;;;;;;;5081147;28;20055;-81
2021/07/22 02:27:06;;;;;;;15.27;10.65;;;;;;;;;;5081178;28;20024;-81
2021/07/22 02:29:32;;;;;;;14.15;10.88;;;;;;;;;;5099049;28;20047;-81
2021/07/22 02:31:58;;;;;;;16.92;10.85;;;;;;;;;;5098921;28;20420;-82
2021/07/22 02:34:24;;;;;;;13.38;9.93;;;;;;;;;;5098675;28;20406;-81
2021/07/22 02:36:50;;;;;;;13.43;9.88;;;;;;;;;;5099034;28;20047;-81
2021/07/22 02:39:16;;;;;;;12.45;9.48;;;;;;;;;;5098416;28;20317;-81
2021/07/22 02:41:42;;;;;;;18.30;9.35;;;;;;;;;;5098789;28;20055;-81
2021/07/22 02:44:08;;;;;;;12.25;9.07;;;;;;;;;;5098797;28;20089;-81
2021/07/22 02:46:35;;;;;;;14.18;9.10;;;;;;;;;;5098678;28;20031;-81
2021/07/22 02:49:01;;;;;;;10.40;8.93;;;;;;;;;;5098472;28;20020;-81
2021/07/22 02:51:27;;;;;;;17.40;8.00;;;;;;;;;;5098448;28;20062;-81
2021/07/22 02:53:53;;;;;;;12.95;8.10;;;;;;;;;;5098176;28;20027;-81
2021/07/22 02:56:19;;;;;;;26.65;9.13;;;;;;;;;;5098544;28;20103;-81
2021/07/22 02:58:46;;;;;;;13.07;8.52;;;;;;;;;;5098414;28;20053;-81
2021/07/22 03:01:12;;;;;;;10.10;7.50;;;;;;;;;;5098511;28;20028;-81
2021/07/22 03:03:38;;;;;;;12.52;7.70;;;;;;;;;;5098254;28;20032;-81
2021/07/22 03:06:04;;;;;;;10.95;7.85;;;;;;;;;;5098262;28;20028;-81
2021/07/22 03:08:30;;;;;;;9.40;7.55;;;;;;;;;;5098312;28;20024;-81
2021/07/22 03:10:56;;;;;;;9.75;8.70;;;;;;;;;;5098335;28;20065;-81
2021/07/22 03:13:22;;;;;;;12.55;9.35;;;;;;;;;;5098109;28;20024;-81
2021/07/22 03:15:48;;;;;;;12.15;9.02;;;;;;;;;;5079929;28;20090;-81
2021/07/22 03:18:14;;;;;;;14.52;9.55;;;;;;;;;;5080037;28;20413;-81
2021/07/22 03:20:40;;;;;;;13.00;9.25;;;;;;;;;;5097520;28;20070;-81
2021/07/22 03:23:06;;;;;;;11.43;9.38;;;;;;;;;;5097785;28;20525;-81
2021/07/22 03:25:33;;;;;;;13.70;9.50;;;;;;;;;;5098079;28;20024;-81
2021/07/22 03:28:02;;;;;;;18.25;10.15;;;;;;;;;;5098039;28;20103;-81
2021/07/22 03:30:28;;;;;;;17.92;9.77;;;;;;;;;;5079757;28;20028;-81
2021/07/22 03:32:54;;;;;;;19.08;10.65;;;;;;;;;;5097658;28;20031;-81
2021/07/22 03:35:20;;;;;;;21.55;10.20;;;;;;;;;;5097736;28;20016;-81
2021/07/22 03:37:46;;;;;;;16.58;10.43;;;;;;;;;;5097862;28;20111;-82
2021/07/22 03:40:13;;;;;;;17.15;10.20;;;;;;;;;;5097503;28;20020;-81
2021/07/22 03:42:39;;;;;;;15.57;10.27;;;;;;;;;;5097499;28;20024;-81
2021/07/22 03:45:05;;;;;;;13.40;10.45;;;;;;;;;;5079726;28;20126;-81
2021/07/22 03:47:31;;;;;;;20.92;10.63;;;;;;;;;;5079545;28;20035;-81
2021/07/22 03:49:57;;;;;;;15.68;10.63;;;;;;;;;;5079665;28;20413;-81
2021/07/22 03:52:23;;;;;;;18.33;11.15;;;;;;;;;;5096561;28;20467;-81
2021/07/22 03:54:49;;;;;;;18.95;10.38;;;;;;;;;;5097427;28;20028;-81
2021/07/22 03:57:15;;;;;;;15.95;10.80;;;;;;;;;;5097396;28;20020;-81
2021/07/22 03:59:41;;;;;;;16.63;10.10;;;;;;;;;;5097105;28;20034;-81
2021/07/22 04:02:07;;;;;;;15.52;10.45;;;;;;;;;;5097202;28;20434;-81
2021/07/22 04:04:33;;;;;;;16.67;10.48;;;;;;;;;;5097221;28;20028;-81
2021/07/22 04:07:02;;;;;;;16.23;10.23;;;;;;;;;;5097213;28;20032;-81
2021/07/22 04:09:29;;;;;;;17.05;10.18;;;;;;;;;;5097134;28;20028;-82
2021/07/22 04:11:55;;;;;;;18.98;10.50;;;;;;;;;;5097072;28;20032;-81
2021/07/22 04:14:21;;;;;;;14.38;10.10;;;;;;;;;;5097062;28;20034;-81
2021/07/22 04:16:47;;;;;;;12.00;10.05;;;;;;;;;;5097163;28;20048;-81
2021/07/22 04:19:13;;;;;;;18.27;10.30;;;;;;;;;;5079102;28;20024;-81
2021/07/22 04:21:39;;;;;;;17.90;9.75;;;;;;;;;;5096987;28;20066;-81
2021/07/22 04:24:05;;;;;;;18.40;9.45;;;;;;;;;;5096973;28;20107;-82
2021/07/22 04:26:31;;;;;;;14.13;9.57;;;;;;;;;;5096939;28;20425;-81
2021/07/22 04:28:57;;;;;;;14.90;9.45;;;;;;;;;;5096964;28;20448;-81
2021/07/22 04:31:23;;;;;;;23.73;9.30;;;;;;;;;;5096788;28;20028;-81
2021/07/22 04:33:49;;;;;;;18.40;8.63;;;;;;;;;;5096978;28;20039;-82
2021/07/22 04:36:15;;;;;;;13.30;7.80;;;;;;;;;;5079040;28;20020;-82
2021/07/22 04:38:44;;;;;;;9.13;7.25;;;;;;;;;;5096869;28;20024;-83
2021/07/22 04:41:10;;;;;;;13.18;7.15;;;;;;;;;;5097047;28;20027;-82
2021/07/22 04:43:36;;;;;;;11.65;7.35;;;;;;;;;;5079141;28;20024;-82
2021/07/22 04:46:03;;;;;;;11.55;6.88;;;;;;;;;;5096954;28;20032;-82
2021/07/22 04:48:30;;;;;;;10.32;6.75;;;;;;;;;;5097119;28;20122;-82
2021/07/22 04:50:56;;;;;;;12.68;6.68;;;;;;;;;;5096841;28;20036;-81
2021/07/22 04:53:22;;;;;;;8.60;6.93;;;;;;;;;;5096648;28;20062;-82
2021/07/22 04:55:48;;;;;;;10.30;6.30;;;;;;;;;;5097020;28;20313;-82
2021/07/22 04:58:14;;;;;;;11.50;6.10;;;;;;;;;;5096694;28;20410;-82
2021/07/22 05:00:40;;;;;;;8.00;6.05;;;;;;;;;;5096912;28;20340;-80
2021/07/22 05:03:06;;;;;;;8.02;6.38;;;;;;;;;;5098656;28;20076;-81
2021/07/22 05:05:36;;;;;;;6.45;5.65;;;;;;;;;;5100487;28;20046;-80
2021/07/22 05:08:02;;;;;;;12.07;6.50;;;;;;;;;;5082519;28;20078;-80
2021/07/22 05:10:29;;;;;;;11.60;6.15;;;;;;;;;;5082567;28;20456;-82
2021/07/22 05:13:02;;;;;;;8.43;5.60;;;;;;;;;;5100294;28;20024;-81
2021/07/22 05:15:28;;;;;;;7.97;6.00;;;;;;;;;;5100426;28;20024;-81
2021/07/22 05:17:54;;;;;;;10.30;6.00;;;;;;;;;;5100248;28;20042;-81
2021/07/22 05:20:20;;;;;;;9.02;6.03;;;;;;;;;;5100762;28;20027;-81
2021/07/22 05:22:47;;;;;;;10.30;6.28;;;;;;;;;;5100208;28;20016;-81
2021/07/22 05:25:13;;;;;;;9.45;6.13;;;;;;;;;;5100215;28;20020;-81
2021/07/22 05:27:39;;;;;;;7.90;5.65;;;;;;;;;;5082349;28;20027;-82
2021/07/22 05:30:06;;;;;;;8.48;5.85;;;;;;;;;;5100209;28;20291;-81
2021/07/22 05:32:33;;;;;;;14.98;6.63;;;;;;;;;;5100111;28;20028;-81
2021/07/22 05:34:59;;;;;;;14.70;8.10;;;;;;;;;;5099976;28;20428;-80
2021/07/22 05:37:26;;;;;;;12.60;8.68;;;;;;;;;;5081417;28;20032;-81
2021/07/22 05:39:52;;;;;;;10.05;8.30;;;;;;;;;;5099896;28;20111;-81
2021/07/22 05:42:18;;;;;;;12.05;8.25;;;;;;;;;;5081451;28;20115;-81
2021/07/22 05:44:44;;;;;;;14.68;9.45;;;;;;;;;;5100081;28;20027;-81
2021/07/22 05:47:10;;;;;;;13.10;9.25;;;;;;;;;;5099690;28;20103;-80
2021/07/22 05:49:37;;;;;;;15.10;9.15;;;;;;;;;;5099681;28;20055;-80
2021/07/22 05:52:03;;;;;;;17.83;10.27;;;;;;;;;;5099748;28;20032;-80
2021/07/22 05:54:29;;;;;;;13.20;9.10;;;;;;;;;;5099749;28;20035;-81
2021/07/22 05:56:55;;;;;;;12.18;8.40;;;;;;;;;;5099743;28;20047;-81
2021/07/22 05:59:21;;;;;;;12.73;9.25;;;;;;;;;;5099609;28;20016;-81
2021/07/22 06:01:47;;;;;;;17.88;9.52;;;;;;;;;;5080971;28;20043;-80
2021/07/22 06:04:13;;;;;;;15.63;9.52;;;;;;;;;;5099406;28;20024;-80
2021/07/22 06:06:42;;;;;;;11.68;7.57;;;;;;;;;;5081524;28;20028;-82
2021/07/22 06:09:09;;;;;;;12.10;7.78;;;;;;;;;;5099237;28;20028;-82
2021/07/22 06:11:35;;;;;;;14.55;8.48;;;;;;;;;;5099409;28;20388;-85
2021/07/22 06:14:01;;;;;;;12.07;8.88;;;;;;;;;;5098574;28;20345;-82
2021/07/22 06:16:27;;;;;;;16.00;10.05;;;;;;;;;;5081281;28;20402;-81
2021/07/22 06:18:54;;;;;;;18.35;11.30;;;;;;;;;;5080974;28;20039;-82
2021/07/22 06:21:20;;;;;;;27.17;13.55;;;;;;;;;;5099079;28;20047;-82
2021/07/22 06:23:46;;;;;;;28.77;16.73;;;;;;;;;;5081029;28;20417;-82
2021/07/22 06:26:12;;;;;;;25.35;12.88;;;;;;;;;;5098420;28;20429;-82
2021/07/22 06:28:38;;;;;;;29.17;17.25;;;;;;;;;;5099267;28;20074;-83
2021/07/22 06:31:04;;;;;;;23.00;11.00;;;;;;;;;;5099052;28;20398;-82
2021/07/22 06:33:30;;;;;;;27.80;18.70;;;;;;;;;;5080600;28;20040;-81
2021/07/22 06:35:56;;;;;;;26.50;16.52;;;;;;;;;;5098580;28;20098;-82
2021/07/22 06:38:23;;;;;;;29.80;18.48;;;;;;;;;;5098689;28;20134;-82
2021/07/22 06:40:49;;;;;;;30.92;20.92;;;;;;;;;;5098824;28;20025;-82
2021/07/22 06:43:15;;;;;;;28.73;20.13;;;;;;;;;;5080758;28;20401;-82
2021/07/22 06:45:42;;;;;;;26.92;18.05;;;;;;;;;;5099219;28;20031;-84
2021/07/22 06:48:08;;;;;;;6.78;4.70;;;;;;;;;;5080496;28;20034;-80
2021/07/22 06:50:34;;;;;;;9.23;4.82;;;;;;;;;;5098832;28;20028;-81
2021/07/22 06:53:07;;;;;;;7.97;3.92;;;;;;;;;;5099157;28;20036;-83
2021/07/22 06:55:33;;;;;;;10.40;4.53;;;;;;;;;;5098619;28;20016;-82
2021/07/22 06:58:09;;;;;;;10.32;4.05;;;;;;;;;;5079892;28;20028;-82
2021/07/22 07:00:36;;;;;;;5.25;4.10;;;;;;;;;;5095866;28;20024;-81
2021/07/22 07:03:05;;;;;;;6.50;3.53;;;;;;;;;;5098266;28;20369;-82
2021/07/22 07:05:32;;;;;;;5.80;3.80;;;;;;;;;;5098283;28;20044;-82
2021/07/22 07:07:58;;;;;;;5.20;4.07;;;;;;;;;;5098441;28;20058;-81
2021/07/22 07:10:24;;;;;;;6.47;3.65;;;;;;;;;;5079963;28;20036;-82
2021/07/22 07:12:51;;;;;;;4.75;3.60;;;;;;;;;;5080110;28;20028;-82
2021/07/22 07:15:17;;;;;;;6.68;4.18;;;;;;;;;;5098205;28;20019;-82
2021/07/22 07:17:43;;;;;;;5.00;3.92;;;;;;;;;;5080189;28;20028;-82
2021/07/22 07:20:10;;;;;;;5.93;4.03;;;;;;;;;;5097716;28;20318;-82
2021/07/22 07:22:36;;;;;;;8.13;4.78;;;;;;;;;;5097938;28;20395;-82
2021/07/22 07:25:02;;;;;;;5.90;4.40;;;;;;;;;;5098049;28;20031;-81
2021/07/22 07:27:28;;;;;;;6.90;4.18;;;;;;;;;;5098076;28;20020;-82
2021/07/22 07:29:54;;;;;;;5.38;3.70;;;;;;;;;;5097876;28;20030;-80
2021/07/22 07:32:20;;;;;;;7.28;3.95;;;;;;;;;;5097504;28;20093;-82
2021/07/22 07:34:46;;;;;;;15.75;8.43;;;;;;;;;;5097650;28;20084;-82
2021/07/22 07:37:12;;;;;;;9.70;5.82;;;;;;;;;;5097921;28;20045;-81
2021/07/22 07:39:38;;;;;;;5.95;3.72;;;;;;;;;;5097936;28;20045;-82
2021/07/22 07:42:04;;;;;;;3.90;3.17;;;;;;;;;;5097629;28;20016;-82
2021/07/22 07:44:30;;;;;;;4.22;3.10;;;;;;;;;;5097529;28;20433;-81
2021/07/22 07:46:56;;;;;;;5.88;3.55;;;;;;;;;;5097583;28;20032;-82
2021/07/22 07:49:22;;;;;;;7.22;3.85;;;;;;;;;;5078910;28;20032;-82
2021/07/22 07:51:48;;;;;;;6.05;3.55;;;;;;;;;;5097219;28;20052;-82
2021/07/22 07:54:19;;;;;;;5.82;3.58;;;;;;;;;;5096929;28;20325;-82
2021/07/22 07:56:45;;;;;;;5.47;3.10;;;;;;;;;;5097431;28;20020;-82
2021/07/22 07:59:11;;;;;;;5.30;3.42;;;;;;;;;;5097489;28;20020;-81
2021/07/22 08:01:37;;;;;;;5.88;3.53;;;;;;;;;;5097324;28;20040;-82
2021/07/22 08:04:03;;;;;;;4.97;3.10;;;;;;;;;;5097303;28;20032;-82
2021/07/22 08:06:31;;;;;;;4.10;3.15;;;;;;;;;;5097652;28;20052;-82
2021/07/22 08:08:57;;;;;;;5.20;3.08;;;;;;;;;;5097200;28;20020;-82
2021/07/22 08:11:23;;;;;;;5.38;3.05;;;;;;;;;;5079028;28;20032;-82
2021/07/22 08:13:49;;;;;;;10.05;3.03;;;;;;;;;;5097043;28;20020;-82
2021/07/22 08:16:17;;;;;;;5.63;3.20;;;;;;;;;;5078906;28;20028;-82
2021/07/22 08:18:44;;;;;;;5.47;3.17;;;;;;;;;;5097145;28;20032;-82
2021/07/22 08:21:10;;;;;;;3.60;2.50;;;;;;;;;;5097461;28;20051;-81
2021/07/22 08:23:36;;;;;;;7.40;2.60;;;;;;;;;;5097051;28;20425;-81
2021/07/22 08:26:05;;;;;;;4.82;2.90;;;;;;;;;;5097160;28;20035;-82
2021/07/22 08:28:31;;;;;;;4.18;2.78;;;;;;;;;;5097008;28;20051;-82
2021/07/22 08:30:57;;;;;;;4.40;2.90;;;;;;;;;;5097221;28;20424;-82
2021/07/22 08:33:24;;;;;;;5.75;2.97;;;;;;;;;;5096861;28;20032;-82
2021/07/22 08:35:50;;;;;;;5.85;2.80;;;;;;;;;;5097041;28;20029;-82
2021/07/22 08:38:16;;;;;;;4.97;3.05;;;;;;;;;;5099512;28;20027;-82
2021/07/22 08:40:42;;;;;;;2.88;2.50;;;;;;;;;;5101046;28;20024;-82
2021/07/22 08:43:08;;;;;;;4.97;2.53;;;;;;;;;;5101116;28;20024;-82
2021/07/22 08:45:34;;;;;;;3.50;2.92;;;;;;;;;;5082874;28;20118;-81
2021/07/22 08:48:00;;;;;;;7.53;2.55;;;;;;;;;;5082768;28;20032;-82
2021/07/22 08:50:27;;;;;;;4.35;2.78;;;;;;;;;;5083169;28;20028;-82
2021/07/22 08:52:53;;;;;;;7.07;2.50;;;;;;;;;;5100617;28;20035;-81
2021/07/22 08:55:19;;;;;;;4.70;2.70;;;;;;;;;;5082708;28;20024;-82
2021/07/22 08:57:47;;;;;;;3.65;2.60;;;;;;;;;;5082392;28;20035;-82
2021/07/22 09:00:15;;;;;;;6.47;3.08;;;;;;;;;;5082696;28;20050;-82
2021/07/22 09:02:42;;;;;;;4.18;2.58;;;;;;;;;;5100553;28;20040;-81
2021/07/22 09:05:09;;;;;;;5.93;2.40;;;;;;;;;;5082742;28;20020;-82
2021/07/22 09:07:35;;;;;;;5.28;2.92;;;;;;;;;;5081955;28;20123;-82
2021/07/22 09:10:04;;;;;;;5.50;2.80;;;;;;;;;;5082631;28;20398;-82
2021/07/22 09:12:37;;;;;;;6.75;2.67;;;;;;;;;;5100541;28;20020;-82
2021/07/22 09:15:04;;;;;;;6.95;2.95;;;;;;;;;;5100317;28;20027;-82
2021/07/22 09:17:30;;;;;;;4.13;2.78;;;;;;;;;;5100559;28;20034;-82
2021/07/22 09:19:56;;;;;;;9.00;3.10;;;;;;;;;;5100048;28;20025;-82
2021/07/22 09:22:42;;;;;;;5.15;2.55;;;;;;;;;;5100193;28;20032;-82
2021/07/22 09:25:09;;;;;;;7.05;3.13;;;;;;;;;;5100141;28;20017;-82
2021/07/22 09:27:39;;;;;;;10.85;2.97;;;;;;;;;;5100248;28;20024;-82
2021/07/22 09:30:07;;;;;;;5.80;3.15;;;;;;;;;;5100210;28;20035;-82
2021/07/22 09:32:33;;;;;;;7.72;3.00;;;;;;;;;;5081477;28;20044;-82
2021/07/22 09:35:13;;;;;;;4.22;2.50;;;;;;;;;;5082112;28;20024;-82
2021/07/22 09:37:43;;;;;;;4.38;3.08;;;;;;;;;;5081819;28;20467;-82
2021/07/22 09:40:10;;;;;;;4.03;2.60;;;;;;;;;;5100032;28;20027;-81
2021/07/22 09:42:40;;;;;;;5.80;2.75;;;;;;;;;;5099933;28;20027;-82
2021/07/22 09:45:37;;;;;;;4.45;2.50;;;;;;;;;;5099806;28;20111;-82
2021/07/22 09:48:07;;;;;;;5.28;2.75;;;;;;;;;;5098694;28;20032;-82
2021/07/22 09:50:41;;;;;;;7.78;3.40;;;;;;;;;;5098624;28;20020;-81
2021/07/22 09:53:08;;;;;;;5.93;2.90;;;;;;;;;;5081361;28;20028;-81
2021/07/22 09:55:34;;;;;;;5.60;2.90;;;;;;;;;;5081184;28;20058;-81
2021/07/22 09:58:01;;;;;;;4.10;2.80;;;;;;;;;;5081382;28;20028;-81
2021/07/22 10:00:29;;;;;;;5.15;2.92;;;;;;;;;;5081228;28;20028;-82
2021/07/22 10:02:56;;;;;;;5.07;2.90;;;;;;;;;;5099346;28;20056;-81
2021/07/22 10:05:23;;;;;;;4.47;2.85;;;;;;;;;;5099375;28;20326;-82
2021/07/22 10:07:50;;;;;;;10.07;3.20;;;;;;;;;;5099488;28;20374;-82
2021/07/22 10:10:16;;;;;;;4.70;2.63;;;;;;;;;;5099265;28;20027;-81
2021/07/22 10:12:51;;;;;;;6.45;3.05;;;;;;;;;;5099561;28;20024;-81
2021/07/22 10:15:18;;;;;;;3.78;2.83;;;;;;;;;;5099277;28;20472;-81
2021/07/22 10:17:47;;;;;;;8.25;3.05;;;;;;;;;;5080856;28;20433;-81
2021/07/22 10:20:13;;;;;;;5.88;3.20;;;;;;;;;;5080895;28;20028;-81
2021/07/22 10:22:43;;;;;;;5.50;3.10;;;;;;;;;;5099114;28;20040;-81
2021/07/22 10:25:12;;;;;;;5.68;3.28;;;;;;;;;;5099319;28;20035;-82
2021/07/22 10:27:42;;;;;;;7.20;3.92;;;;;;;;;;5099027;28;20102;-81
2021/07/22 10:30:09;;;;;;;6.15;3.20;;;;;;;;;;5099114;28;20103;-82
2021/07/22 10:32:35;;;;;;;7.30;3.15;;;;;;;;;;5098420;28;20043;-85
2021/07/22 10:35:01;;;;;;;4.32;3.13;;;;;;;;;;5078663;28;20024;-82
2021/07/22 10:37:27;;;;;;;5.90;3.50;;;;;;;;;;5077481;28;20062;-82
2021/07/22 10:40:05;;;;;;;7.82;3.83;;;;;;;;;;5091416;28;20337;-82
2021/07/22 10:42:51;;;;;;;8.50;3.85;;;;;;;;;;5099322;28;20082;-84
2021/07/22 10:45:17;;;;;;;5.05;3.50;;;;;;;;;;5098846;28;20056;-84
2021/07/22 10:48:03;;;;;;;6.95;3.67;;;;;;;;;;5098224;28;20035;-83
2021/07/22 10:50:56;;;;;;;5.30;3.80;;;;;;;;;;5096407;28;20031;-84
2021/07/22 10:53:38;;;;;;;7.38;4.05;;;;;;;;;;5094019;28;20046;-84
2021/07/22 10:56:14;;;;;;;10.88;4.55;;;;;;;;;;5080564;28;20020;-83
2021/07/22 10:58:40;;;;;;;6.00;4.35;;;;;;;;;;5098341;28;20406;-84
2021/07/22 11:01:07;;;;;;;7.70;4.40;;;;;;;;;;5098263;28;20028;-84
2021/07/22 11:03:34;;;;;;;7.85;4.28;;;;;;;;;;5098261;28;20055;-84
2021/07/22 11:06:01;;;;;;;7.88;4.13;;;;;;;;;;5098659;28;20085;-84
2021/07/22 11:08:29;;;;;;;6.57;4.60;;;;;;;;;;5079951;28;20066;-85
2021/07/22 11:10:56;;;;;;;9.23;4.63;;;;;;;;;;5080246;28;20039;-84
2021/07/22 11:13:34;;;;;;;5.28;4.43;;;;;;;;;;5098146;28;20055;-84
2021/07/22 11:16:01;;;;;;;7.00;4.90;;;;;;;;;;5098399;28;20028;-84
2021/07/22 11:18:43;;;;;;;7.57;4.45;;;;;;;;;;5098389;28;20029;-84
2021/07/22 11:21:12;;;;;;;9.80;4.47;;;;;;;;;;5098237;28;20163;-84
2021/07/22 11:23:41;;;;;;;7.70;4.43;;;;;;;;;;5098179;28;20039;-84
2021/07/22 11:26:08;;;;;;;7.50;4.45;;;;;;;;;;5079770;28;20039;-84
2021/07/22 11:28:35;;;;;;;8.00;4.45;;;;;;;;;;5097961;28;20024;-84
2021/07/22 11:31:08;;;;;;;7.38;4.90;;;;;;;;;;5098149;28;20047;-84
2021/07/22 11:33:38;;;;;;;6.10;4.72;;;;;;;;;;5097851;28;20032;-84
2021/07/22 11:36:05;;;;;;;6.20;4.82;;;;;;;;;;5080022;28;20024;-84
2021/07/22 11:38:32;;;;;;;9.88;4.38;;;;;;;;;;5079821;28;20357;-84
2021/07/22 11:40:58;;;;;;;9.05;5.05;;;;;;;;;;5079838;28;20310;-83
2021/07/22 11:43:31;;;;;;;6.50;4.38;;;;;;;;;;5097683;28;20382;-84
2021/07/22 11:45:57;;;;;;;8.15;4.90;;;;;;;;;;5079465;28;20077;-84
2021/07/22 11:48:23;;;;;;;10.40;5.03;;;;;;;;;;5097607;28;20028;-84
2021/07/22 11:51:03;;;;;;;5.78;4.38;;;;;;;;;;5097290;28;20410;-84
2021/07/22 11:53:30;;;;;;;6.15;4.78;;;;;;;;;;5097500;28;20036;-84
2021/07/22 11:56:15;;;;;;;7.43;4.50;;;;;;;;;;5079004;28;20338;-83
2021/07/22 11:58:44;;;;;;;6.18;5.18;;;;;;;;;;5079646;28;20445;-84
2021/07/22 12:01:10;;;;;;;6.30;4.70;;;;;;;;;;5097722;28;20055;-84
2021/07/22 12:03:36;;;;;;;7.35;4.88;;;;;;;;;;5097592;28;20028;-84
2021/07/22 12:06:02;;;;;;;6.63;4.60;;;;;;;;;;5097613;28;20020;-84
2021/07/22 12:08:29;;;;;;;7.70;4.70;;;;;;;;;;5097665;28;20050;-84
2021/07/22 12:10:59;;;;;;;7.43;4.45;;;;;;;;;;5097562;28;20024;-84
2021/07/22 12:13:25;;;;;;;7.88;4.63;;;;;;;;;;5096551;28;20058;-81
2021/07/22 12:15:51;;;;;;;7.38;4.63;;;;;;;;;;5079105;28;20028;-84
2021/07/22 12:18:20;;;;;;;10.73;4.93;;;;;;;;;;5097193;28;20033;-82
2021/07/22 12:20:46;;;;;;;14.70;8.40;;;;;;;;;;5097061;28;20031;-82
2021/07/22 12:23:28;;;;;;;7.90;4.75;;;;;;;;;;5097080;28;20068;-83
2021/07/22 12:25:55;;;;;;;11.15;8.05;;;;;;;;;;5097266;28;20410;-83
2021/07/22 12:28:21;;;;;;;8.77;5.25;;;;;;;;;;5096867;28;20437;-83
2021/07/22 12:30:47;;;;;;;8.02;4.95;;;;;;;;;;5097075;28;20413;-82
2021/07/22 12:33:21;;;;;;;8.02;5.30;;;;;;;;;;5096960;28;20042;-83
2021/07/22 12:35:47;;;;;;;6.88;5.22;;;;;;;;;;5097073;28;20459;-83
2021/07/22 12:38:16;;;;;;;11.77;4.85;;;;;;;;;;5097009;28;20402;-83
2021/07/22 12:40:45;;;;;;;10.32;4.97;;;;;;;;;;5096740;28;20028;-84
2021/07/22 12:43:13;;;;;;;6.57;4.60;;;;;;;;;;5097564;28;20027;-83
2021/07/22 12:45:39;;;;;;;7.30;4.88;;;;;;;;;;5098428;28;20070;-84
2021/07/22 12:48:06;;;;;;;25.27;18.63;;;;;;;;;;5097873;28;20043;-84
2021/07/22 12:50:32;;;;;;;40.22;16.98;;;;;;;;;;5098188;28;20035;-84
2021/07/22 12:53:08;;;;;;;16.58;10.98;;;;;;;;;;5098568;28;20020;-83
2021/07/22 12:55:35;;;;;;;11.65;9.15;;;;;;;;;;5097757;28;20046;-83
2021/07/22 12:58:02;;;;;;;8.88;4.93;;;;;;;;;;5098073;28;20031;-83
2021/07/22 13:00:28;;;;;;;5.57;4.63;;;;;;;;;;5097802;28;20036;-82
2021/07/22 13:03:01;;;;;;;6.00;4.72;;;;;;;;;;5097934;28;20097;-83
2021/07/22 13:05:27;;;;;;;9.35;5.28;;;;;;;;;;5098165;28;20031;-83
2021/07/22 13:07:53;;;;;;;7.90;5.05;;;;;;;;;;5097820;28;20016;-83
2021/07/22 13:10:21;;;;;;;6.85;4.80;;;;;;;;;;5097542;28;20036;-83
2021/07/22 13:12:47;;;;;;;7.53;4.93;;;;;;;;;;5079732;28;20027;-83
2021/07/22 13:15:15;;;;;;;8.77;4.82;;;;;;;;;;5096600;28;20165;-83
2021/07/22 13:17:41;;;;;;;8.07;5.47;;;;;;;;;;5078399;28;20028;-82
2021/07/22 13:20:07;;;;;;;9.80;5.13;;;;;;;;;;5096901;28;20299;-83
2021/07/22 13:22:33;;;;;;;14.50;5.63;;;;;;;;;;5096489;28;20016;-83
2021/07/22 13:24:59;;;;;;;9.40;4.72;;;;;;;;;;5100006;28;20035;-84
2021/07/22 13:27:26;;;;;;;10.18;5.05;;;;;;;;;;5100127;28;20024;-81
2021/07/22 13:29:52;;;;;;;7.03;4.72;;;;;;;;;;5081416;28;20249;-83
2021/07/22 13:32:18;;;;;;;6.15;4.55;;;;;;;;;;5081883;28;20135;-83
2021/07/22 13:34:45;;;;;;;7.07;4.63;;;;;;;;;;5100377;28;20318;-82
2021/07/22 13:37:11;;;;;;;8.63;4.32;;;;;;;;;;5100072;28;20028;-82
2021/07/22 13:39:38;;;;;;;6.40;4.45;;;;;;;;;;5100109;28;20021;-84
2021/07/22 13:42:07;;;;;;;9.55;4.38;;;;;;;;;;5099930;28;20110;-81
2021/07/22 13:44:33;;;;;;;10.63;4.47;;;;;;;;;;5099592;28;20035;-81
2021/07/22 13:46:59;;;;;;;7.00;4.97;;;;;;;;;;5081466;28;20040;-81
2021/07/22 13:49:28;;;;;;;5.78;4.45;;;;;;;;;;5081406;28;20056;-81
2021/07/22 13:51:55;;;;;;;7.18;4.90;;;;;;;;;;5099745;28;20024;-81
2021/07/22 13:54:21;;;;;;;6.68;4.85;;;;;;;;;;5099509;28;20020;-81
2021/07/22 13:56:47;;;;;;;7.30;4.47;;;;;;;;;;5099691;28;20026;-81
2021/07/22 13:59:13;;;;;;;7.82;4.53;;;;;;;;;;5081644;28;20402;-81
2021/07/22 14:01:39;;;;;;;7.55;4.80;;;;;;;;;;5099252;28;20040;-81
2021/07/22 14:04:06;;;;;;;7.18;4.85;;;;;;;;;;5099269;28;20426;-81
2021/07/22 14:06:32;;;;;;;7.45;4.45;;;;;;;;;;5099659;28;20028;-81
2021/07/22 14:08:58;;;;;;;7.00;4.50;;;;;;;;;;5099492;28;20031;-81
2021/07/22 14:11:24;;;;;;;7.85;4.55;;;;;;;;;;5080821;28;20036;-81
2021/07/22 14:13:50;;;;;;;8.63;5.00;;;;;;;;;;5081384;28;20107;-81
2021/07/22 14:16:16;;;;;;;11.68;5.00;;;;;;;;;;5099349;28;20361;-81
2021/07/22 14:18:42;;;;;;;6.38;4.78;;;;;;;;;;5098913;28;20405;-81
2021/07/22 14:21:08;;;;;;;10.13;5.10;;;;;;;;;;5099183;28;20024;-80
2021/07/22 14:23:34;;;;;;;6.90;5.30;;;;;;;;;;5081275;28;20060;-81
2021/07/22 14:26:00;;;;;;;10.07;5.18;;;;;;;;;;5099152;28;20020;-81
2021/07/22 14:28:26;;;;;;;15.93;6.32;;;;;;;;;;5098891;28;20137;-81
2021/07/22 14:30:52;;;;;;;9.38;5.45;;;;;;;;;;5099178;28;20052;-81
2021/07/22 14:33:18;;;;;;;11.70;4.97;;;;;;;;;;5098991;28;20028;-81